Time;durP1;ratioP1;P1;durP2;ratioP2;P2;SDS_P1;SDS_P2;PMS_P1;PMS_P2;Temp;Humidity;BMP_temperature;BMP_pressure;BME280_temperature;BME280_humidity;BME280_pressure;Samples;Min_cycle;Max_cycle;Signal;HPM_P1;HPM_P2
2022/12/20 00:02:23;;;;;;;;;8.25;8.00;;;;;13.30;57.64;100879.56;5045683;28;60291;-61
2022/12/20 00:04:48;;;;;;;;;13.25;8.00;;;;;13.30;57.68;100887.44;5038711;28;45818;-61
2022/12/20 00:07:13;;;;;;;;;8.75;7.75;;;;;13.28;57.93;100894.53;5042158;28;65554;-61
2022/12/20 00:09:39;;;;;;;;;10.25;8.75;;;;;13.26;57.71;100888.47;5047990;28;55996;-62
2022/12/20 00:12:04;;;;;;;;;8.50;8.25;;;;;13.26;57.72;100877.97;5043799;28;45536;-61
2022/12/20 00:14:30;;;;;;;;;8.00;8.00;;;;;13.28;57.78;100877.91;5043457;28;45493;-62
2022/12/20 00:16:55;;;;;;;;;10.00;9.25;;;;;13.28;58.21;100870.88;5044820;28;58096;-63
2022/12/20 00:19:20;;;;;;;;;12.50;8.50;;;;;13.27;57.61;100870.94;5046363;28;45324;-63
2022/12/20 00:21:46;;;;;;;;;9.75;6.75;;;;;13.28;58.08;100868.25;5049352;28;45637;-62
2022/12/20 00:24:11;;;;;;;;;10.00;9.00;;;;;13.28;57.75;100873.50;5055187;28;45411;-62
2022/12/20 00:26:36;;;;;;;;;13.00;8.00;;;;;13.27;57.92;100866.53;5047141;28;48168;-62
2022/12/20 00:29:04;;;;;;;;;6.25;6.00;;;;;13.26;57.94;100854.31;5054423;28;45263;-62
2022/12/20 00:31:30;;;;;;;;;10.25;8.75;;;;;13.25;57.62;100851.75;5046138;28;45368;-62
2022/12/20 00:33:56;;;;;;;;;7.75;6.75;;;;;13.23;57.69;100856.19;5042778;28;45439;-62
2022/12/20 00:36:23;;;;;;;;;11.00;7.75;;;;;13.23;57.97;100857.06;5035142;28;47278;-62
2022/12/20 00:38:50;;;;;;;;;8.25;7.75;;;;;13.23;57.79;100853.56;5042027;28;45338;-61
2022/12/20 00:41:27;;;;;;;;;7.00;6.00;;;;;13.21;57.67;100850.13;5053440;28;45367;-62
2022/12/20 00:43:53;;;;;;;;;7.25;7.25;;;;;13.15;57.67;100845.09;5052823;28;45315;-62
2022/12/20 00:46:19;;;;;;;;;9.75;8.00;;;;;13.14;57.69;100848.63;5044336;28;46050;-62
2022/12/20 00:48:45;;;;;;;;;7.50;7.00;;;;;13.14;58.19;100849.50;5048027;28;45304;-62
2022/12/20 00:51:13;;;;;;;;;7.75;5.75;;;;;13.12;57.82;100840.81;5048135;28;45386;-62
2022/12/20 00:53:39;;;;;;;;;12.00;8.00;;;;;13.13;58.20;100846.94;5045750;28;45537;-62
2022/12/20 00:56:05;;;;;;;;;7.75;6.25;;;;;13.11;58.01;100842.56;5047209;28;47368;-62
2022/12/20 00:58:32;;;;;;;;;8.50;7.00;;;;;13.13;58.40;100841.66;5045942;28;45841;-62
2022/12/20 01:00:58;;;;;;;;;9.00;7.25;;;;;13.10;58.00;100842.63;5045370;28;45501;-62
2022/12/20 01:03:24;;;;;;;;;5.75;5.75;;;;;13.11;57.79;100841.72;5056314;28;45525;-61
2022/12/20 01:06:00;;;;;;;;;9.25;7.00;;;;;13.13;58.12;100839.03;5051991;28;45683;-62
2022/12/20 01:08:27;;;;;;;;;8.25;7.00;;;;;13.11;58.41;100844.34;5047095;28;45673;-63
2022/12/20 01:11:05;;;;;;;;;7.00;7.00;;;;;13.11;57.93;100849.59;5058625;28;45501;-62
2022/12/20 01:13:31;;;;;;;;;6.50;6.50;;;;;13.11;58.08;100839.94;5054013;28;45463;-62
2022/12/20 01:16:06;;;;;;;;;9.25;7.50;;;;;13.12;58.32;100843.44;5047214;28;47126;-62
2022/12/20 01:18:31;;;;;;;;;6.00;6.00;;;;;13.10;57.86;100834.75;5063608;28;45787;-61
2022/12/20 01:21:05;;;;;;;;;6.75;6.75;;;;;13.12;58.08;100830.31;5049694;28;45701;-62
2022/12/20 01:23:31;;;;;;;;;7.00;6.00;;;;;13.12;58.26;100827.69;5051291;28;45438;-62
2022/12/20 01:26:00;;;;;;;;;11.00;8.25;;;;;13.14;58.29;100844.25;5043101;28;45284;-62
2022/12/20 01:28:25;;;;;;;;;11.00;8.75;;;;;13.13;58.29;100826.75;5050337;28;45867;-62
2022/12/20 01:30:51;;;;;;;;;8.25;7.00;;;;;13.15;58.37;100829.34;5047472;28;45335;-62
2022/12/20 01:33:16;;;;;;;;;8.75;7.00;;;;;13.14;57.71;100825.84;5048699;28;45497;-62
2022/12/20 01:35:41;;;;;;;;;9.25;7.00;;;;;13.17;58.20;100830.97;5046152;28;60783;-62
2022/12/20 01:38:07;;;;;;;;;9.25;7.00;;;;;13.14;57.99;100825.84;5052915;28;57072;-62
2022/12/20 01:40:32;;;;;;;;;7.50;5.00;;;;;13.13;58.21;100825.91;5043418;28;45390;-63
2022/12/20 01:42:58;;;;;;;;;6.50;6.00;;;;;13.13;57.94;100818.88;5050809;28;51704;-62
2022/12/20 01:45:29;;;;;;;;;7.00;7.00;;;;;13.15;58.12;100831.97;5054931;28;45444;-62
2022/12/20 01:47:56;;;;;;;;;10.25;7.00;;;;;13.14;58.09;100833.75;5043570;28;45690;-62
2022/12/20 01:50:22;;;;;;;;;9.00;7.00;;;;;13.15;58.52;100817.03;5047660;28;45547;-62
2022/12/20 01:52:48;;;;;;;;;8.25;6.00;;;;;13.16;58.40;100818.78;5047853;28;45478;-62
2022/12/20 01:55:19;;;;;;;;;8.00;6.50;;;;;13.15;58.19;100818.81;5045486;28;47191;-64
2022/12/20 01:58:05;;;;;;;;;10.25;8.00;;;;;13.15;58.27;100824.94;5046646;28;45876;-63
2022/12/20 02:00:30;;;;;;;;;8.50;6.50;;;;;13.16;58.64;100821.41;5048869;28;45371;-63
2022/12/20 02:02:59;;;;;;;;;8.75;6.00;;;;;13.15;58.21;100819.66;5049672;28;45427;-61
2022/12/20 02:05:24;;;;;;;;;10.00;5.75;;;;;13.15;58.48;100826.69;5061369;27;46556;-62
2022/12/20 02:07:52;;;;;;;;;7.50;5.25;;;;;13.15;58.26;100827.56;5050019;28;45462;-62
2022/12/20 02:10:19;;;;;;;;;7.75;6.00;;;;;13.15;58.23;100824.06;5033530;28;45571;-62
2022/12/20 02:12:46;;;;;;;;;6.00;6.00;;;;;13.16;58.04;100837.16;5053093;28;45547;-62
2022/12/20 02:15:27;;;;;;;;;6.50;6.00;;;;;13.15;58.06;100831.97;5050710;28;45492;-62
2022/12/20 02:18:10;;;;;;;;;7.00;6.00;;;;;13.15;58.32;100835.44;5048403;28;45776;-62
2022/12/20 02:20:45;;;;;;;;;8.25;5.00;;;;;13.15;57.99;100835.44;5051977;28;45477;-62
2022/12/20 02:23:29;;;;;;;;;8.00;7.25;;;;;13.17;58.28;100836.22;5053231;28;45367;-62
2022/12/20 02:26:00;;;;;;;;;9.00;7.50;;;;;13.18;58.17;100837.13;5043674;28;45371;-62
2022/12/20 02:28:52;;;;;;;;;6.00;4.75;;;;;13.19;58.08;100837.06;5047269;28;45237;-62
2022/12/20 02:31:20;;;;;;;;;6.00;5.50;;;;;13.19;57.82;100826.56;5041782;28;46101;-62
2022/12/20 02:33:47;;;;;;;;;7.00;4.00;;;;;13.19;57.90;100825.66;5032009;28;45537;-62
2022/12/20 02:36:17;;;;;;;;;5.75;5.00;;;;;13.20;58.16;100817.72;5045691;28;45648;-62
2022/12/20 02:38:42;;;;;;;;;6.75;5.00;;;;;13.20;58.12;100814.25;5047669;28;45466;-62
2022/12/20 02:41:14;;;;;;;;;6.75;4.25;;;;;13.18;57.89;100813.47;5044895;28;54513;-62
2022/12/20 02:46:27;;;;;;;;;6.00;5.00;;;;;13.13;57.80;100797.00;5047527;28;45799;-62
2022/12/20 02:48:55;;;;;;;;;8.00;5.25;;;;;13.10;57.75;100801.47;5040931;28;45228;-61
2022/12/20 02:51:22;;;;;;;;;6.00;6.00;;;;;13.08;57.69;100798.03;5047793;28;46074;-62
2022/12/20 02:53:48;;;;;;;;;8.25;6.50;;;;;13.07;57.62;100795.47;5051833;28;45471;-63
2022/12/20 02:56:16;;;;;;;;;7.50;5.50;;;;;13.06;57.75;100781.44;5047513;28;45492;-63
2022/12/20 02:58:51;;;;;;;;;9.25;7.75;;;;;13.05;57.81;100765.75;5044401;28;45317;-63
2022/12/20 03:01:41;;;;;;;;;6.25;6.25;;;;;13.07;57.95;100771.81;5045453;28;45484;-63
2022/12/20 03:04:07;;;;;;;;;7.75;6.25;;;;;13.05;58.00;100773.63;5049228;28;45503;-62
2022/12/20 03:06:32;;;;;;;;;5.75;4.00;;;;;13.02;57.93;100758.84;5042583;28;62063;-63
2022/12/20 03:08:57;;;;;;;;;9.00;6.00;;;;;13.04;57.98;100764.03;5052326;28;45442;-63
2022/12/20 03:11:23;;;;;;;;;7.75;5.25;;;;;13.02;57.95;100758.84;5046146;28;45550;-65
2022/12/20 03:13:48;;;;;;;;;8.50;5.50;;;;;13.02;57.53;100758.84;5040735;28;45396;-62
2022/12/20 03:16:14;;;;;;;;;8.50;6.25;;;;;13.03;57.71;100760.56;5041591;28;47686;-63
2022/12/20 03:18:39;;;;;;;;;4.25;4.00;;;;;13.02;57.68;100753.59;5043558;28;45311;-63
2022/12/20 03:21:05;;;;;;;;;8.00;5.00;;;;;12.98;57.90;100762.50;5044265;28;45233;-63
2022/12/20 03:23:30;;;;;;;;;7.50;4.25;;;;;12.98;58.03;100766.88;5047370;28;45470;-63
2022/12/20 03:25:56;;;;;;;;;8.25;6.00;;;;;12.98;57.58;100772.13;5030590;28;45645;-62
2022/12/20 03:28:21;;;;;;;;;7.00;6.75;;;;;12.96;58.00;100773.97;5056635;28;45476;-62
2022/12/20 03:30:46;;;;;;;;;6.00;5.75;;;;;12.93;57.41;100772.31;5045162;28;45596;-63
2022/12/20 03:33:12;;;;;;;;;7.50;5.75;;;;;12.93;57.98;100758.34;5048013;28;45469;-62
2022/12/20 03:35:37;;;;;;;;;6.50;5.75;;;;;12.91;57.75;100759.22;5051577;28;46479;-63
2022/12/20 03:38:03;;;;;;;;;5.25;5.00;;;;;12.92;57.87;100760.09;5047908;28;45479;-62
2022/12/20 03:40:28;;;;;;;;;6.50;6.00;;;;;12.91;57.79;100764.50;5048968;28;59427;-63
2022/12/20 03:42:53;;;;;;;;;4.75;3.75;;;;;12.93;57.33;100776.72;5049489;28;54996;-63
2022/12/20 03:45:19;;;;;;;;;5.00;5.00;;;;;12.94;57.68;100773.16;5051356;28;67648;-63
2022/12/20 03:47:44;;;;;;;;;5.75;4.00;;;;;12.92;57.50;100770.59;5048552;28;50946;-63
2022/12/20 03:50:10;;;;;;;;;7.00;5.00;;;;;12.93;57.93;100776.72;5049806;28;45676;-63
2022/12/20 03:52:36;;;;;;;;;6.00;4.75;;;;;12.92;57.85;100765.34;5040569;28;45256;-63
2022/12/20 03:55:02;;;;;;;;;5.75;5.00;;;;;12.91;57.87;100756.59;5053064;28;62075;-63
2022/12/20 03:57:27;;;;;;;;;5.00;4.00;;;;;12.89;57.80;100753.19;5044936;28;45513;-62
2022/12/20 03:59:53;;;;;;;;;5.25;4.00;;;;;12.89;57.86;100758.44;5046587;28;45378;-63
2022/12/20 04:02:18;;;;;;;;;5.75;4.25;;;;;12.89;57.88;100752.31;5041119;28;45512;-61
2022/12/20 04:04:43;;;;;;;;;4.25;4.25;;;;;12.88;57.80;100751.47;5030972;28;46409;-61
2022/12/20 04:07:09;;;;;;;;;4.00;4.00;;;;;12.89;57.53;100752.31;5050421;28;65742;-61
2022/12/20 04:09:34;;;;;;;;;4.00;4.00;;;;;12.91;57.66;100745.25;5048550;28;45237;-61
2022/12/20 04:12:00;;;;;;;;;5.00;5.00;;;;;12.90;57.76;100736.50;5052011;28;62906;-62
2022/12/20 04:14:25;;;;;;;;;4.75;4.00;;;;;12.90;57.70;100731.25;5050827;28;45490;-62
2022/12/20 04:16:51;;;;;;;;;5.00;3.50;;;;;12.89;57.56;100726.91;5042084;28;61591;-61
2022/12/20 04:19:16;;;;;;;;;4.00;3.75;;;;;12.90;57.68;100719.88;5042603;28;45312;-62
2022/12/20 04:21:42;;;;;;;;;1.25;1.00;;;;;12.88;57.32;100714.69;5040528;28;45422;-62
2022/12/20 04:24:07;;;;;;;;;6.00;5.50;;;;;12.87;57.47;100717.38;5043792;28;53103;-62
2022/12/20 04:26:33;;;;;;;;;3.75;3.00;;;;;12.85;57.12;100708.69;5043427;28;45434;-62
2022/12/20 04:28:58;;;;;;;;;6.00;4.00;;;;;12.86;57.54;100719.16;5050672;28;62154;-62
2022/12/20 04:31:23;;;;;;;;;3.50;3.00;;;;;12.84;57.06;100710.47;5048761;28;45468;-62
2022/12/20 04:33:49;;;;;;;;;5.75;3.00;;;;;12.86;57.63;100705.16;5045929;28;60786;-62
2022/12/20 04:36:14;;;;;;;;;7.25;3.50;;;;;12.85;57.46;100704.28;5043110;28;45279;-63
2022/12/20 04:38:40;;;;;;;;;5.25;4.00;;;;;12.83;57.11;100711.38;5055892;28;46008;-62
2022/12/20 04:41:05;;;;;;;;;5.00;5.00;;;;;12.83;57.20;100714.00;5045693;28;45485;-62
2022/12/20 04:43:30;;;;;;;;;4.00;4.00;;;;;12.82;57.34;100712.31;5044977;28;55872;-63
2022/12/20 04:45:56;;;;;;;;;4.50;4.00;;;;;12.87;57.27;100714.75;5045732;28;45326;-62
2022/12/20 04:48:28;;;;;;;;;5.25;3.00;;;;;12.88;57.46;100712.06;5043318;28;45304;-62
2022/12/20 04:50:55;;;;;;;;;3.00;3.00;;;;;12.90;57.35;100712.00;5045771;28;45429;-63
2022/12/20 04:56:05;;;;;;;;;5.75;4.00;;;;;12.89;57.31;100713.78;5041081;28;45329;-62
2022/12/20 04:58:30;;;;;;;;;7.00;4.75;;;;;12.86;57.64;100719.16;5041804;28;45753;-62
2022/12/20 05:00:56;;;;;;;;;8.00;7.00;;;;;12.86;57.42;100716.50;5042408;28;45620;-62
2022/12/20 05:03:23;;;;;;;;;13.50;7.50;;;;;12.88;57.25;100713.84;5035752;28;64500;-62
2022/12/20 05:05:48;;;;;;;;;6.75;5.25;;;;;12.86;57.30;100710.41;5049155;28;45994;-62
2022/12/20 05:08:14;;;;;;;;;10.00;6.25;;;;;12.88;57.31;100717.31;5050781;28;60583;-62
2022/12/20 05:10:39;;;;;;;;;7.50;5.75;;;;;12.90;57.00;100712.84;5048055;28;45526;-62
2022/12/20 05:13:05;;;;;;;;;7.00;5.25;;;;;12.90;57.19;100699.72;5049492;28;46248;-62
2022/12/20 05:15:30;;;;;;;;;8.00;5.50;;;;;12.89;57.09;100700.66;5050654;28;47048;-62
2022/12/20 05:17:58;;;;;;;;;6.75;6.75;;;;;12.91;57.42;100701.44;5043504;28;50950;-62
2022/12/20 05:20:27;;;;;;;;;8.50;7.00;;;;;12.95;57.35;100696.09;5052247;28;45442;-61
2022/12/20 05:28:23;;;;;;;;;6.00;5.25;;;;;12.98;56.94;100686.31;5048240;28;45453;-62
2022/12/20 05:30:48;;;;;;;;;6.25;5.00;;;;;12.98;57.23;100691.56;5053525;28;45700;-62
2022/12/20 05:33:13;;;;;;;;;8.00;5.50;;;;;12.99;57.00;100689.78;5051346;28;69061;-61
2022/12/20 05:35:39;;;;;;;;;5.50;4.00;;;;;13.01;56.88;100685.34;5048211;28;45761;-62
2022/12/20 05:38:04;;;;;;;;;9.75;5.75;;;;;13.02;56.98;100693.16;5050125;28;45624;-62
2022/12/20 05:40:29;;;;;;;;;4.25;4.25;;;;;13.04;56.76;100695.72;5045593;28;62765;-62
2022/12/20 05:42:55;;;;;;;;;7.00;5.00;;;;;13.05;56.79;100695.69;5043291;28;67419;-63
2022/12/20 05:45:20;;;;;;;;;4.00;4.00;;;;;13.07;56.91;100695.63;5047945;28;58652;-62
2022/12/20 05:47:46;;;;;;;;;4.25;4.00;;;;;13.06;56.80;100694.75;5051112;28;45643;-62
2022/12/20 05:50:11;;;;;;;;;5.00;4.25;;;;;13.07;57.22;100688.59;5050148;28;45586;-62
2022/12/20 05:52:37;;;;;;;;;8.00;4.00;;;;;13.06;57.03;100686.88;5048490;28;67247;-62
2022/12/20 05:55:02;;;;;;;;;8.00;6.00;;;;;13.06;57.23;100683.41;5052964;28;45354;-62
2022/12/20 05:57:27;;;;;;;;;5.25;5.00;;;;;13.04;56.91;100683.44;5048265;28;45339;-63
2022/12/20 05:59:53;;;;;;;;;3.50;3.00;;;;;13.04;57.09;100678.19;5057241;28;45339;-62
2022/12/20 06:02:19;;;;;;;;;3.75;3.50;;;;;13.07;56.81;100693.00;5048358;28;46894;-62
2022/12/20 06:04:44;;;;;;;;;3.75;3.75;;;;;13.08;57.22;100681.56;5048398;28;45629;-62
2022/12/20 06:07:10;;;;;;;;;5.75;4.00;;;;;13.09;57.12;100676.25;5054453;28;45332;-62
2022/12/20 06:09:35;;;;;;;;;4.00;4.00;;;;;13.08;56.74;100682.44;5052411;28;45229;-62
2022/12/20 06:12:00;;;;;;;;;2.00;2.00;;;;;13.09;57.15;100678.88;5045489;28;68425;-63
2022/12/20 06:14:26;;;;;;;;;5.50;3.00;;;;;13.09;57.04;100686.75;5047220;28;52898;-62
2022/12/20 06:16:52;;;;;;;;;3.25;3.25;;;;;13.09;57.01;100685.91;5047810;28;54857;-62
2022/12/20 06:19:17;;;;;;;;;4.25;3.00;;;;;13.09;57.05;100680.66;5052717;28;45823;-62
2022/12/20 06:21:42;;;;;;;;;4.75;3.00;;;;;13.09;56.80;100688.53;5052812;28;45619;-62
2022/12/20 06:24:08;;;;;;;;;3.25;3.00;;;;;13.11;56.81;100699.84;5059054;28;46241;-62
2022/12/20 06:26:36;;;;;;;;;4.25;3.00;;;;;13.12;57.01;100685.81;5048572;28;45402;-62
2022/12/20 06:29:12;;;;;;;;;3.00;3.00;;;;;13.11;56.89;100690.19;5044983;28;45337;-62
2022/12/20 06:31:38;;;;;;;;;2.50;2.25;;;;;13.14;56.95;100689.22;5046842;28;45296;-62
2022/12/20 06:34:04;;;;;;;;;5.25;3.75;;;;;13.14;57.22;100694.47;5045164;28;45320;-62
2022/12/20 06:36:29;;;;;;;;;3.75;3.50;;;;;13.14;57.41;100694.47;5041189;28;45462;-62
2022/12/20 06:38:55;;;;;;;;;2.75;2.75;;;;;13.09;57.38;100692.00;5050852;28;45536;-62
2022/12/20 06:41:20;;;;;;;;;3.00;3.00;;;;;13.11;57.19;100684.91;5043498;28;45684;-62
2022/12/20 06:43:46;;;;;;;;;5.25;3.75;;;;;13.10;57.28;100683.22;5045375;28;45525;-62
2022/12/20 06:46:11;;;;;;;;;4.00;3.25;;;;;13.13;57.73;100684.03;5042409;28;45386;-63
2022/12/20 06:48:37;;;;;;;;;3.00;3.00;;;;;13.12;57.34;100683.19;5038579;28;45579;-63
2022/12/20 06:51:02;;;;;;;;;3.25;2.00;;;;;13.15;57.13;100684.81;5044540;28;45306;-63
2022/12/20 06:53:28;;;;;;;;;3.50;3.50;;;;;13.15;57.05;100680.41;5044521;28;45440;-63
2022/12/20 06:55:53;;;;;;;;;5.00;3.00;;;;;13.17;57.09;100693.50;5049003;28;45933;-64
2022/12/20 06:58:19;;;;;;;;;4.00;3.00;;;;;13.18;57.26;100692.59;5052154;28;45260;-63
2022/12/20 07:00:45;;;;;;;;;3.50;3.25;;;;;13.20;57.41;100688.13;5044284;28;46993;-63
2022/12/20 07:03:10;;;;;;;;;3.00;3.00;;;;;13.20;56.89;100686.34;5049142;28;45602;-63
2022/12/20 07:05:36;;;;;;;;;4.00;3.00;;;;;13.20;57.46;100678.47;5045664;28;45598;-63
2022/12/20 07:08:03;;;;;;;;;4.00;2.75;;;;;13.22;56.94;100688.91;5050654;28;45460;-63
2022/12/20 07:10:29;;;;;;;;;3.00;3.00;;;;;13.23;57.48;100698.53;5046634;28;45309;-62
2022/12/20 07:12:55;;;;;;;;;4.25;3.00;;;;;13.24;57.01;100698.47;5028026;28;45496;-63
2022/12/20 07:15:21;;;;;;;;;4.25;4.00;;;;;13.22;56.82;100695.00;5052546;28;45474;-63
2022/12/20 07:17:46;;;;;;;;;5.25;3.00;;;;;13.27;56.94;100702.75;5047539;28;45302;-62
2022/12/20 07:20:13;;;;;;;;;4.00;4.00;;;;;13.28;56.93;100701.84;5044479;28;45627;-62
2022/12/20 07:22:38;;;;;;;;;4.00;3.00;;;;;13.29;57.26;100696.50;5047080;28;45868;-60
2022/12/20 07:25:04;;;;;;;;;5.25;3.00;;;;;13.29;57.11;100695.66;5041421;28;45465;-62
2022/12/20 07:27:29;;;;;;;;;4.25;4.00;;;;;13.30;57.33;100695.59;5031946;28;45561;-60
2022/12/20 07:29:55;;;;;;;;;4.25;3.00;;;;;13.30;56.83;100685.06;5038567;28;45472;-60
2022/12/20 07:32:20;;;;;;;;;3.00;3.00;;;;;13.33;57.28;100697.25;5040033;28;45346;-60
2022/12/20 07:34:46;;;;;;;;;4.50;3.75;;;;;13.34;56.93;100687.63;5043375;28;56144;-60
2022/12/20 07:37:11;;;;;;;;;6.00;3.00;;;;;13.33;57.12;100683.28;5047626;28;45447;-60
2022/12/20 07:39:36;;;;;;;;;3.00;3.00;;;;;13.32;57.21;100679.78;5039152;28;54963;-60
2022/12/20 07:42:02;;;;;;;;;4.25;4.00;;;;;13.35;56.77;100689.31;5044810;28;45266;-60
2022/12/20 07:44:27;;;;;;;;;3.00;3.00;;;;;13.35;56.95;100690.19;5042362;28;45434;-60
2022/12/20 07:46:53;;;;;;;;;6.25;3.00;;;;;13.37;57.16;100698.88;5040904;28;59604;-60
2022/12/20 07:49:18;;;;;;;;;3.25;3.00;;;;;13.38;56.79;100695.31;5041963;28;46140;-60
2022/12/20 07:51:49;;;;;;;;;5.25;3.00;;;;;13.37;56.86;100693.63;5043721;28;65473;-60
2022/12/20 07:54:19;;;;;;;;;4.25;4.00;;;;;13.37;57.08;100696.25;5044610;28;45453;-60
2022/12/20 07:56:51;;;;;;;;;4.00;4.00;;;;;13.39;57.00;100704.06;5042836;28;45456;-60
2022/12/20 07:59:21;;;;;;;;;4.25;4.25;;;;;13.40;57.02;100685.63;5041263;28;46126;-60
2022/12/20 08:01:47;;;;;;;;;4.00;3.25;;;;;13.40;56.62;100698.75;5040101;28;45390;-60
2022/12/20 08:04:23;;;;;;;;;4.00;4.00;;;;;13.41;56.73;100699.59;5043950;28;45565;-61
2022/12/20 08:06:49;;;;;;;;;4.00;4.00;;;;;13.42;56.81;100693.41;5044489;28;46064;-61
2022/12/20 08:09:15;;;;;;;;;5.50;5.50;;;;;13.42;56.55;100696.03;5046716;28;45310;-60
2022/12/20 08:11:42;;;;;;;;;9.75;4.00;;;;;13.40;56.58;100697.88;5047314;28;45501;-60
2022/12/20 08:14:08;;;;;;;;;6.00;4.00;;;;;13.42;56.32;100701.31;5037665;28;45299;-61
2022/12/20 08:16:34;;;;;;;;;5.75;4.00;;;;;13.43;56.55;100690.72;5040540;28;65828;-60
2022/12/20 08:18:59;;;;;;;;;5.00;3.00;;;;;13.45;56.44;100682.78;5038396;28;46138;-60
2022/12/20 08:21:24;;;;;;;;;6.00;4.00;;;;;13.45;56.25;100690.69;5046656;28;45386;-61
2022/12/20 08:23:50;;;;;;;;;7.75;5.75;;;;;13.44;56.36;100696.88;5037660;28;59126;-61
2022/12/20 08:26:16;;;;;;;;;7.25;6.00;;;;;13.45;56.39;100695.94;5041820;28;45245;-60
2022/12/20 08:28:41;;;;;;;;;7.75;5.50;;;;;13.45;56.84;100690.69;5038198;28;45391;-60
2022/12/20 08:31:08;;;;;;;;;6.75;5.00;;;;;13.46;56.89;100690.63;5043152;28;63014;-61
2022/12/20 08:33:34;;;;;;;;;5.25;4.75;;;;;13.48;56.57;100687.94;5042958;28;45406;-60
2022/12/20 08:36:01;;;;;;;;;6.00;4.25;;;;;13.48;56.12;100691.41;5040601;28;45239;-60
2022/12/20 08:38:30;;;;;;;;;5.00;4.00;;;;;13.50;56.77;100687.88;5042503;28;46348;-61
2022/12/20 08:41:01;;;;;;;;;3.00;3.00;;;;;13.49;56.41;100692.25;5047319;28;46059;-61
2022/12/20 08:43:26;;;;;;;;;5.00;5.00;;;;;13.50;56.34;100690.50;5046160;28;45455;-61
2022/12/20 08:45:53;;;;;;;;;6.00;4.50;;;;;13.53;56.28;100685.09;5044558;28;63259;-61
2022/12/20 08:48:18;;;;;;;;;8.00;4.00;;;;;13.53;56.08;100692.97;5043595;28;47179;-60
2022/12/20 08:50:44;;;;;;;;;5.00;4.75;;;;;13.53;56.48;100688.59;5045422;28;57296;-62
2022/12/20 08:53:09;;;;;;;;;4.75;3.00;;;;;13.55;56.05;100686.75;5043399;28;45360;-60
2022/12/20 08:55:35;;;;;;;;;5.75;4.00;;;;;13.56;56.05;100695.50;5056192;28;68753;-60
2022/12/20 08:58:00;;;;;;;;;7.00;5.50;;;;;13.56;56.06;100692.88;5050357;28;55199;-61
2022/12/20 09:00:25;;;;;;;;;5.00;4.00;;;;;13.56;56.14;100692.88;5046693;28;62274;-61
2022/12/20 09:02:53;;;;;;;;;5.25;4.25;;;;;13.55;55.70;100691.19;5040201;28;45495;-61
2022/12/20 09:05:18;;;;;;;;;5.00;5.00;;;;;13.55;56.04;100694.66;5044725;28;45515;-61
2022/12/20 09:07:44;;;;;;;;;3.00;3.00;;;;;13.56;55.81;100696.34;5059537;28;46241;-60
2022/12/20 09:10:10;;;;;;;;;8.50;4.00;;;;;13.58;56.27;100702.44;5046589;28;51127;-61
2022/12/20 09:12:36;;;;;;;;;7.00;5.00;;;;;13.60;56.25;100703.22;5046690;28;45568;-61
2022/12/20 09:15:01;;;;;;;;;8.00;4.00;;;;;13.61;56.02;100709.31;5054776;28;45327;-62
2022/12/20 09:17:27;;;;;;;;;4.50;4.50;;;;;13.59;56.37;100705.91;5045913;28;45273;-61
2022/12/20 09:19:54;;;;;;;;;3.75;3.00;;;;;13.58;56.51;100701.53;5028815;28;45492;-61
2022/12/20 09:22:19;;;;;;;;;5.00;3.25;;;;;13.57;56.71;100707.75;5037745;28;45337;-61
2022/12/20 09:24:44;;;;;;;;;5.75;3.75;;;;;13.56;56.86;100709.50;5042154;28;45633;-60
2022/12/20 09:27:10;;;;;;;;;5.25;5.00;;;;;13.60;56.83;100715.50;5051275;28;54652;-61
2022/12/20 09:29:35;;;;;;;;;4.25;4.25;;;;;13.58;57.43;100710.31;5045307;28;45310;-60
2022/12/20 09:32:01;;;;;;;;;4.00;3.00;;;;;13.58;57.19;100712.94;5027994;28;46176;-60
2022/12/20 09:34:26;;;;;;;;;5.00;4.25;;;;;13.55;57.90;100710.44;5040011;28;52427;-61
2022/12/20 09:36:51;;;;;;;;;4.25;4.00;;;;;13.53;57.41;100708.75;5041340;28;46742;-60
2022/12/20 09:39:17;;;;;;;;;3.00;3.00;;;;;13.55;57.67;100707.81;5054687;28;58394;-60
2022/12/20 09:41:43;;;;;;;;;3.00;2.50;;;;;13.55;58.89;100707.81;5042145;28;52559;-60
2022/12/20 09:44:18;;;;;;;;;4.50;4.00;;;;;13.53;57.92;100719.28;5054418;28;45426;-60
2022/12/20 09:46:46;;;;;;;;;7.75;4.00;;;;;13.52;58.45;100707.06;5050537;28;45590;-61
2022/12/20 09:49:16;;;;;;;;;4.25;3.00;;;;;13.50;58.55;100716.78;5040179;28;45560;-61
2022/12/20 09:51:41;;;;;;;;;3.75;3.75;;;;;13.48;58.47;100711.59;5031061;28;45632;-61
2022/12/20 09:54:16;;;;;;;;;5.00;4.00;;;;;13.46;59.48;100702.91;5053499;28;45388;-60
2022/12/20 09:57:03;;;;;;;;;6.00;4.00;;;;;13.44;59.33;100705.59;5044800;28;46336;-60
2022/12/20 09:59:29;;;;;;;;;6.25;5.75;;;;;13.43;60.41;100701.25;5031306;28;45396;-62
2022/12/20 10:01:54;;;;;;;;;5.75;4.75;;;;;13.42;60.01;100696.94;5039119;28;45454;-61
2022/12/20 10:04:28;;;;;;;;;5.00;5.00;;;;;13.41;61.77;100704.88;5040274;28;45653;-61
2022/12/20 10:07:17;;;;;;;;;5.75;2.00;;;;;13.37;59.60;100695.38;5048588;28;45353;-61
2022/12/20 10:10:10;;;;;;;;;4.75;4.25;;;;;13.35;60.46;100695.44;5043531;28;45273;-61
2022/12/20 10:12:39;;;;;;;;;6.00;5.00;;;;;13.33;61.07;100684.13;5043937;28;45650;-61
2022/12/20 10:15:31;;;;;;;;;9.00;7.00;;;;;13.33;60.69;100685.91;5046609;28;45476;-62
2022/12/20 10:18:12;;;;;;;;;7.00;5.50;;;;;13.30;61.34;100690.34;5040410;28;45623;-62
2022/12/20 10:20:49;;;;;;;;;7.00;5.00;;;;;13.30;61.24;100689.47;5042829;28;45794;-61
2022/12/20 10:23:22;;;;;;;;;5.25;5.25;;;;;13.33;61.13;100697.25;5050455;28;45374;-61
2022/12/20 10:25:49;;;;;;;;;9.00;6.00;;;;;13.34;61.47;100695.50;5046259;28;47275;-62
2022/12/20 10:28:15;;;;;;;;;8.25;4.75;;;;;13.35;61.16;100700.72;5046606;28;46672;-61
2022/12/20 10:30:42;;;;;;;;;7.00;5.00;;;;;13.34;61.48;100687.63;5048518;28;45846;-61
2022/12/20 10:33:15;;;;;;;;;6.00;4.75;;;;;13.35;61.33;100689.31;5046696;28;45474;-61
2022/12/20 10:35:42;;;;;;;;;7.50;6.00;;;;;13.35;61.82;100684.06;5042975;28;45371;-61
2022/12/20 10:38:12;;;;;;;;;3.00;3.00;;;;;13.34;61.68;100682.38;5040551;28;45424;-62
2022/12/20 10:40:44;;;;;;;;;7.50;5.00;;;;;13.34;61.93;100674.47;5027821;28;46004;-61
2022/12/20 10:43:16;;;;;;;;;8.25;7.25;;;;;13.32;62.01;100665.81;5046185;28;45556;-62
2022/12/20 10:45:43;;;;;;;;;9.25;7.25;;;;;13.28;61.58;100665.88;5041504;28;45472;-62
2022/12/20 10:48:47;;;;;;;;;4.75;4.25;;;;;13.27;62.38;100669.41;5041327;28;46018;-62
2022/12/20 10:51:18;;;;;;;;;19.25;14.50;;;;;13.28;61.91;100675.56;4973846;28;45650;-62
2022/12/20 10:53:54;;;;;;;;;13.50;12.00;;;;;13.29;61.80;100685.13;4967404;28;45428;-61
2022/12/20 10:56:31;;;;;;;;;7.00;6.00;;;;;13.28;62.02;100689.53;5019524;28;45626;-61
2022/12/20 10:59:25;;;;;;;;;7.25;6.00;;;;;13.30;62.34;100676.34;5033560;28;46259;-62
2022/12/20 11:01:50;;;;;;;;;7.75;5.50;;;;;13.29;62.53;100679.88;5046878;28;45434;-61
2022/12/20 11:04:34;;;;;;;;;6.25;4.50;;;;;13.28;62.32;100673.78;5047422;28;46268;-62
2022/12/20 11:07:01;;;;;;;;;9.25;6.50;;;;;13.28;62.25;100665.03;5046723;28;45431;-62
2022/12/20 11:09:37;;;;;;;;;9.00;6.75;;;;;13.26;63.04;100672.09;5067701;28;45350;-62
2022/12/20 11:12:10;;;;;;;;;11.00;8.50;;;;;13.25;63.95;100660.75;5050172;28;45760;-62
2022/12/20 11:14:37;;;;;;;;;14.75;9.00;;;;;13.25;63.07;100659.91;5044707;28;45332;-62
2022/12/20 11:17:28;;;;;;;;;12.25;9.50;;;;;13.26;63.76;100661.59;5047100;28;45301;-63
2022/12/20 11:20:25;;;;;;;;;10.75;8.25;;;;;13.25;63.04;100663.38;5022036;28;47443;-62
2022/12/20 11:23:17;;;;;;;;;11.50;9.25;;;;;13.28;63.03;100654.53;5027940;28;45399;-62
2022/12/20 11:25:54;;;;;;;;;16.00;11.25;;;;;13.24;63.35;100653.78;5039064;28;45398;-62
2022/12/20 11:29:06;;;;;;;;;13.00;9.00;;;;;13.23;63.10;100657.31;5040177;28;45447;-62
2022/12/20 11:31:56;;;;;;;;;11.75;9.00;;;;;13.24;63.17;100652.91;4995676;28;46458;-62
2022/12/20 11:34:45;;;;;;;;;13.25;10.00;;;;;13.25;63.77;100650.22;5045593;28;45576;-62
2022/12/20 11:37:25;;;;;;;;;10.75;10.00;;;;;13.24;62.91;100645.91;5043890;28;45253;-62
2022/12/20 11:39:56;;;;;;;;;11.00;9.25;;;;;13.26;63.11;100641.44;5042400;28;45546;-62
2022/12/20 11:42:58;;;;;;;;;15.50;12.00;;;;;13.26;63.21;100645.81;5051309;28;45859;-62